Time;durP1;ratioP1;P1;durP2;ratioP2;P2;SDS_P1;SDS_P2;PMS_P1;PMS_P2;Temp;Humidity;BMP_temperature;BMP_pressure;BME280_temperature;BME280_humidity;BME280_pressure;Samples;Min_cycle;Max_cycle;Signal;HPM_P1;HPM_P2
2021/12/26 00:00:59;;;;;;;;;;;22.60;32.50;;;;;;482215;246;1630;-46
2021/12/26 00:03:00;;;;;;;;;;;22.60;32.50;;;;;;482673;246;1202;-47
2021/12/26 00:05:02;;;;;;;;;;;22.60;32.50;;;;;;482706;246;995;-47
2021/12/26 00:07:03;;;;;;;;;;;22.60;32.50;;;;;;482337;246;1234;-47
2021/12/26 00:09:04;;;;;;;;;;;22.60;32.50;;;;;;482254;246;1304;-47
2021/12/26 00:11:06;;;;;;;;;;;22.70;32.50;;;;;;482680;246;1267;-47
2021/12/26 00:13:07;;;;;;;;;;;22.70;32.50;;;;;;482700;246;1222;-47
2021/12/26 00:15:08;;;;;;;;;;;22.70;32.50;;;;;;482306;246;1179;-47
2021/12/26 00:17:09;;;;;;;;;;;22.70;32.50;;;;;;482222;246;1230;-47
2021/12/26 00:19:11;;;;;;;;;;;22.70;32.50;;;;;;482277;246;2189;-47
2021/12/26 00:21:13;;;;;;;;;;;22.60;32.60;;;;;;482695;246;1362;-47
2021/12/26 00:23:14;;;;;;;;;;;22.50;32.60;;;;;;482670;246;1371;-47
2021/12/26 00:25:15;;;;;;;;;;;22.30;33.00;;;;;;482764;246;1047;-47
2021/12/26 00:27:18;;;;;;;;;;;22.10;33.30;;;;;;482345;246;1162;-46
2021/12/26 00:29:17;;;;;;;;;;;21.90;33.60;;;;;;482421;246;2344;-46
2021/12/26 00:31:19;;;;;;;;;;;21.80;33.90;;;;;;482553;246;1374;-47
2021/12/26 00:33:20;;;;;;;;;;;21.70;34.10;;;;;;482691;246;1219;-47
2021/12/26 00:35:21;;;;;;;;;;;21.60;34.30;;;;;;482320;246;1240;-46
2021/12/26 00:37:23;;;;;;;;;;;21.50;34.40;;;;;;482136;246;1191;-47
2021/12/26 00:39:24;;;;;;;;;;;21.40;34.50;;;;;;482281;246;2126;-46
2021/12/26 00:41:25;;;;;;;;;;;21.40;34.60;;;;;;482276;246;1550;-46
2021/12/26 00:43:27;;;;;;;;;;;21.30;34.70;;;;;;482245;246;1082;-46
2021/12/26 00:45:28;;;;;;;;;;;21.30;34.70;;;;;;482216;246;1262;-46
2021/12/26 00:47:30;;;;;;;;;;;21.30;34.70;;;;;;482137;246;1180;-47
2021/12/26 00:49:31;;;;;;;;;;;21.30;34.80;;;;;;482282;246;2059;-46
2021/12/26 00:51:32;;;;;;;;;;;21.20;34.80;;;;;;482155;246;1148;-46
2021/12/26 00:53:33;;;;;;;;;;;21.20;35.00;;;;;;482294;246;971;-46
2021/12/26 00:55:35;;;;;;;;;;;21.10;35.00;;;;;;482728;246;1069;-47
2021/12/26 00:57:36;;;;;;;;;;;21.10;35.00;;;;;;482646;246;1149;-46
2021/12/26 00:59:37;;;;;;;;;;;21.20;35.10;;;;;;482434;246;2268;-46
2021/12/26 01:01:39;;;;;;;;;;;21.10;35.10;;;;;;482651;246;1394;-47
2021/12/26 01:03:40;;;;;;;;;;;21.00;35.20;;;;;;482527;246;1323;-46
2021/12/26 01:05:41;;;;;;;;;;;21.00;35.20;;;;;;482637;246;954;-46
2021/12/26 01:07:54;;;;;;;;;;;21.00;35.30;;;;;;482584;246;1188;-46
2021/12/26 01:09:50;;;;;;;;;;;20.90;35.30;;;;;;481766;247;2049;-46
2021/12/26 01:11:51;;;;;;;;;;;20.90;35.20;;;;;;482168;247;2109;-46
2021/12/26 01:13:49;;;;;;;;;;;20.90;35.30;;;;;;482017;247;2367;-46
2021/12/26 01:15:52;;;;;;;;;;;20.90;35.30;;;;;;482179;246;2319;-46
2021/12/26 01:17:55;;;;;;;;;;;20.90;35.30;;;;;;482062;247;2159;-46
2021/12/26 01:19:54;;;;;;;;;;;20.90;35.30;;;;;;481980;247;2133;-46
2021/12/26 01:21:55;;;;;;;;;;;20.90;35.40;;;;;;482032;247;2419;-46
2021/12/26 01:23:55;;;;;;;;;;;20.80;35.40;;;;;;482130;247;2256;-46
2021/12/26 01:25:56;;;;;;;;;;;20.80;35.40;;;;;;482191;246;1182;-46
2021/12/26 01:27:57;;;;;;;;;;;20.80;35.50;;;;;;482273;246;1211;-46
2021/12/26 01:29:59;;;;;;;;;;;20.80;35.40;;;;;;482305;246;1319;-46
2021/12/26 01:32:01;;;;;;;;;;;20.90;35.40;;;;;;482229;246;1294;-46
2021/12/26 01:34:02;;;;;;;;;;;20.90;35.40;;;;;;482290;246;1074;-46
2021/12/26 01:36:03;;;;;;;;;;;20.80;35.40;;;;;;482591;246;1252;-46
2021/12/26 01:38:05;;;;;;;;;;;20.80;35.50;;;;;;482227;246;1182;-46
2021/12/26 01:40:06;;;;;;;;;;;20.70;35.50;;;;;;482281;246;2435;-46
2021/12/26 01:42:09;;;;;;;;;;;20.80;35.60;;;;;;482365;246;1235;-46
2021/12/26 01:44:10;;;;;;;;;;;20.80;35.50;;;;;;482102;247;1473;-46
2021/12/26 01:46:10;;;;;;;;;;;20.70;35.50;;;;;;482418;247;2063;-47
2021/12/26 01:48:12;;;;;;;;;;;20.70;35.60;;;;;;482244;246;1062;-46
2021/12/26 01:50:12;;;;;;;;;;;20.70;35.40;;;;;;482189;246;1968;-46
2021/12/26 01:52:14;;;;;;;;;;;20.70;35.60;;;;;;482159;246;1168;-46
2021/12/26 01:54:16;;;;;;;;;;;20.70;35.50;;;;;;482518;246;1221;-46
2021/12/26 01:56:16;;;;;;;;;;;20.70;35.70;;;;;;482531;246;2447;-46
2021/12/26 01:58:18;;;;;;;;;;;20.60;35.60;;;;;;482284;246;999;-46
2021/12/26 02:00:19;;;;;;;;;;;20.60;35.60;;;;;;482251;246;2199;-46
2021/12/26 02:02:21;;;;;;;;;;;20.60;35.60;;;;;;482252;246;1235;-46
2021/12/26 02:04:22;;;;;;;;;;;20.60;35.60;;;;;;482338;247;2370;-46
2021/12/26 02:06:23;;;;;;;;;;;20.60;35.60;;;;;;482516;246;1219;-46
2021/12/26 02:08:25;;;;;;;;;;;20.60;35.60;;;;;;482301;246;1065;-46
2021/12/26 02:10:26;;;;;;;;;;;20.60;35.60;;;;;;482427;246;1288;-47
2021/12/26 02:12:27;;;;;;;;;;;20.60;35.60;;;;;;482186;246;1237;-46
2021/12/26 02:14:29;;;;;;;;;;;20.60;35.60;;;;;;482232;246;1284;-45
2021/12/26 02:16:30;;;;;;;;;;;20.60;35.70;;;;;;482356;246;1372;-46
2021/12/26 02:18:31;;;;;;;;;;;20.60;35.70;;;;;;482205;246;1320;-46
2021/12/26 02:20:38;;;;;;;;;;;20.60;35.70;;;;;;482239;246;2138;-46
2021/12/26 02:22:38;;;;;;;;;;;20.60;35.60;;;;;;481856;247;2226;-46
2021/12/26 02:25:06;;;;;;;;;;;20.50;35.60;;;;;;482394;247;2296;-46
2021/12/26 02:28:57;;;;;;;;;;;20.60;35.70;;;;;;482469;247;1141;-46
2021/12/26 02:30:59;;;;;;;;;;;20.60;35.60;;;;;;482295;246;1214;-46
2021/12/26 02:33:03;;;;;;;;;;;20.60;35.70;;;;;;482623;246;1248;-47
2021/12/26 02:35:01;;;;;;;;;;;20.50;35.60;;;;;;482154;247;1871;-46
2021/12/26 02:37:03;;;;;;;;;;;20.60;35.70;;;;;;482101;246;1268;-46
2021/12/26 02:39:04;;;;;;;;;;;20.60;35.70;;;;;;482258;246;1260;-46
2021/12/26 02:41:05;;;;;;;;;;;20.50;35.70;;;;;;482154;243;2123;-46
2021/12/26 02:43:07;;;;;;;;;;;20.50;35.70;;;;;;482412;246;1060;-46
2021/12/26 02:45:08;;;;;;;;;;;20.50;35.60;;;;;;482481;246;1299;-46
2021/12/26 02:47:09;;;;;;;;;;;20.50;35.70;;;;;;482210;246;1227;-46
2021/12/26 02:49:11;;;;;;;;;;;20.50;35.70;;;;;;482721;246;1043;-47
2021/12/26 02:51:12;;;;;;;;;;;20.50;35.70;;;;;;482303;246;1393;-46
2021/12/26 02:53:13;;;;;;;;;;;20.50;35.60;;;;;;482417;246;1240;-46
2021/12/26 02:55:14;;;;;;;;;;;20.50;35.70;;;;;;482246;246;1162;-46
2021/12/26 02:57:16;;;;;;;;;;;20.40;35.80;;;;;;482210;246;1223;-46
2021/12/26 02:59:17;;;;;;;;;;;20.40;35.70;;;;;;482717;246;1088;-46
2021/12/26 03:01:18;;;;;;;;;;;20.50;35.70;;;;;;482304;246;2126;-46
2021/12/26 03:03:20;;;;;;;;;;;20.40;35.80;;;;;;482365;246;1294;-46
2021/12/26 03:05:21;;;;;;;;;;;20.50;35.80;;;;;;482415;246;1341;-46
2021/12/26 03:07:22;;;;;;;;;;;20.40;35.80;;;;;;482391;246;1296;-46
2021/12/26 03:09:26;;;;;;;;;;;20.40;35.80;;;;;;482223;246;1146;-46
2021/12/26 03:11:25;;;;;;;;;;;20.40;35.80;;;;;;482219;247;1437;-46
2021/12/26 03:13:26;;;;;;;;;;;20.40;35.70;;;;;;482274;246;1136;-46
2021/12/26 03:15:28;;;;;;;;;;;20.40;35.70;;;;;;482226;244;1205;-47
2021/12/26 03:17:29;;;;;;;;;;;20.40;35.70;;;;;;482251;246;1559;-46
2021/12/26 03:19:30;;;;;;;;;;;20.40;35.80;;;;;;482256;246;1067;-46
2021/12/26 03:21:33;;;;;;;;;;;20.40;35.90;;;;;;482471;246;2196;-46
2021/12/26 03:23:33;;;;;;;;;;;20.40;35.90;;;;;;482253;247;1355;-46
2021/12/26 03:25:34;;;;;;;;;;;20.40;35.80;;;;;;482692;246;1104;-46
2021/12/26 03:27:36;;;;;;;;;;;20.40;35.80;;;;;;482348;246;1234;-46
2021/12/26 03:29:37;;;;;;;;;;;20.40;35.80;;;;;;482282;246;1010;-46
2021/12/26 03:31:41;;;;;;;;;;;20.40;35.90;;;;;;482185;246;1357;-46
2021/12/26 03:33:40;;;;;;;;;;;20.30;35.80;;;;;;482470;247;1965;-46
2021/12/26 03:35:41;;;;;;;;;;;20.40;35.80;;;;;;482368;246;1069;-46
2021/12/26 03:37:43;;;;;;;;;;;20.40;35.70;;;;;;482341;246;1194;-46
2021/12/26 03:39:44;;;;;;;;;;;20.40;35.80;;;;;;482285;246;1644;-46
2021/12/26 03:41:45;;;;;;;;;;;20.40;35.70;;;;;;482169;246;2122;-46
2021/12/26 03:43:47;;;;;;;;;;;20.40;35.70;;;;;;482246;246;1084;-46
2021/12/26 03:45:49;;;;;;;;;;;20.30;35.80;;;;;;482536;246;1258;-46
2021/12/26 03:47:50;;;;;;;;;;;20.30;35.80;;;;;;482633;246;1232;-46
2021/12/26 03:49:53;;;;;;;;;;;20.30;35.80;;;;;;482260;246;1182;-46
2021/12/26 03:51:53;;;;;;;;;;;20.40;35.80;;;;;;482354;247;2513;-46
2021/12/26 03:53:54;;;;;;;;;;;20.30;35.80;;;;;;482296;246;1156;-46
2021/12/26 03:55:55;;;;;;;;;;;20.30;35.80;;;;;;482646;246;1317;-46
2021/12/26 03:57:57;;;;;;;;;;;20.30;35.80;;;;;;482250;246;1173;-45
2021/12/26 03:59:58;;;;;;;;;;;20.30;35.80;;;;;;482555;246;1058;-46
2021/12/26 04:01:59;;;;;;;;;;;20.30;35.80;;;;;;482104;246;2188;-46
2021/12/26 04:04:01;;;;;;;;;;;20.30;35.90;;;;;;482669;246;1064;-46
2021/12/26 04:06:02;;;;;;;;;;;20.30;35.80;;;;;;482222;246;1523;-46
2021/12/26 04:08:04;;;;;;;;;;;20.30;35.80;;;;;;482271;246;1292;-46
2021/12/26 04:10:05;;;;;;;;;;;20.30;35.80;;;;;;482722;246;1076;-46
2021/12/26 04:12:06;;;;;;;;;;;20.30;35.80;;;;;;482369;246;1228;-46
2021/12/26 04:14:08;;;;;;;;;;;20.30;35.80;;;;;;482311;246;1046;-46
2021/12/26 04:16:09;;;;;;;;;;;20.30;35.80;;;;;;482226;246;1219;-47
2021/12/26 04:18:10;;;;;;;;;;;20.30;35.80;;;;;;482235;246;1159;-46
2021/12/26 04:20:11;;;;;;;;;;;20.20;35.80;;;;;;482298;246;2177;-46
2021/12/26 04:22:13;;;;;;;;;;;20.30;35.80;;;;;;482307;246;1159;-46
2021/12/26 04:24:14;;;;;;;;;;;20.30;35.70;;;;;;482288;246;1043;-46
2021/12/26 04:26:15;;;;;;;;;;;20.30;35.70;;;;;;482313;246;1336;-46
2021/12/26 04:28:17;;;;;;;;;;;20.20;35.70;;;;;;482335;246;1268;-47
2021/12/26 04:30:18;;;;;;;;;;;20.30;35.80;;;;;;482245;246;1253;-46
2021/12/26 04:32:20;;;;;;;;;;;20.30;35.80;;;;;;482201;246;1278;-47
2021/12/26 04:34:21;;;;;;;;;;;20.30;35.80;;;;;;482609;246;1217;-47
2021/12/26 04:36:22;;;;;;;;;;;20.30;35.80;;;;;;482183;246;1210;-46
2021/12/26 04:38:24;;;;;;;;;;;20.20;35.80;;;;;;482570;246;1198;-46
2021/12/26 04:40:25;;;;;;;;;;;20.20;35.80;;;;;;482285;246;2113;-47
2021/12/26 04:42:26;;;;;;;;;;;20.20;35.90;;;;;;482269;246;1259;-46
2021/12/26 04:44:28;;;;;;;;;;;20.20;35.80;;;;;;482515;246;1087;-46
2021/12/26 04:46:29;;;;;;;;;;;20.20;35.70;;;;;;482495;243;1283;-47
2021/12/26 04:48:30;;;;;;;;;;;20.20;35.80;;;;;;482708;246;1077;-46
2021/12/26 04:50:31;;;;;;;;;;;20.20;35.70;;;;;;482272;246;1250;-46
2021/12/26 04:52:33;;;;;;;;;;;20.30;35.70;;;;;;482255;246;1167;-46
2021/12/26 04:54:34;;;;;;;;;;;20.30;35.80;;;;;;482704;246;1030;-46
2021/12/26 04:56:35;;;;;;;;;;;20.20;35.80;;;;;;482164;246;1404;-46
2021/12/26 04:58:37;;;;;;;;;;;20.20;35.80;;;;;;482493;246;1022;-46
2021/12/26 05:00:38;;;;;;;;;;;20.20;35.80;;;;;;482700;246;2202;-46
2021/12/26 05:02:39;;;;;;;;;;;20.20;35.80;;;;;;482205;246;1502;-46
2021/12/26 05:04:41;;;;;;;;;;;20.20;35.80;;;;;;482604;246;1045;-46
2021/12/26 05:06:42;;;;;;;;;;;20.20;35.70;;;;;;482362;246;1152;-46
2021/12/26 05:08:43;;;;;;;;;;;20.20;35.80;;;;;;482714;246;1220;-46
2021/12/26 05:10:45;;;;;;;;;;;20.20;35.80;;;;;;482357;246;1141;-46
2021/12/26 05:12:46;;;;;;;;;;;20.30;35.60;;;;;;482407;246;1596;-47
2021/12/26 05:14:47;;;;;;;;;;;20.60;35.20;;;;;;482574;246;1093;-46
2021/12/26 05:16:48;;;;;;;;;;;20.70;34.80;;;;;;482119;246;1561;-46
2021/12/26 05:18:50;;;;;;;;;;;20.90;34.60;;;;;;482286;246;1098;-47
2021/12/26 05:20:51;;;;;;;;;;;21.00;34.30;;;;;;482248;246;2133;-47
2021/12/26 05:22:53;;;;;;;;;;;21.10;34.20;;;;;;482230;246;1175;-46
2021/12/26 05:24:54;;;;;;;;;;;21.20;34.10;;;;;;482190;246;1028;-47
2021/12/26 05:26:55;;;;;;;;;;;21.20;34.00;;;;;;482629;246;1704;-46
2021/12/26 05:28:57;;;;;;;;;;;21.30;33.90;;;;;;482641;246;1628;-47
2021/12/26 05:30:58;;;;;;;;;;;21.30;33.90;;;;;;482640;246;1057;-47
2021/12/26 05:32:59;;;;;;;;;;;21.40;33.80;;;;;;482312;246;1240;-47
2021/12/26 05:35:01;;;;;;;;;;;21.40;33.70;;;;;;482725;246;1281;-47
2021/12/26 05:37:02;;;;;;;;;;;21.50;33.60;;;;;;482226;246;1383;-46
2021/12/26 05:39:03;;;;;;;;;;;21.50;33.50;;;;;;482380;246;1286;-47
2021/12/26 05:41:05;;;;;;;;;;;21.60;33.50;;;;;;482348;246;2189;-46
2021/12/26 05:43:06;;;;;;;;;;;21.60;33.40;;;;;;482509;246;1218;-47
2021/12/26 05:45:07;;;;;;;;;;;21.60;33.40;;;;;;482513;246;1018;-46
2021/12/26 05:47:09;;;;;;;;;;;21.70;33.30;;;;;;482250;246;1452;-46
2021/12/26 05:49:10;;;;;;;;;;;21.70;33.30;;;;;;482248;246;1032;-47
2021/12/26 05:51:12;;;;;;;;;;;21.70;33.20;;;;;;482512;246;1329;-46
2021/12/26 05:53:13;;;;;;;;;;;21.70;33.20;;;;;;482217;246;1199;-47
2021/12/26 05:55:14;;;;;;;;;;;21.80;33.20;;;;;;482701;246;1057;-46
2021/12/26 05:57:16;;;;;;;;;;;21.80;33.10;;;;;;482220;246;1398;-46
2021/12/26 05:59:17;;;;;;;;;;;21.80;33.10;;;;;;482280;246;1047;-46
2021/12/26 06:01:18;;;;;;;;;;;21.90;33.10;;;;;;482612;246;2125;-46
2021/12/26 06:03:19;;;;;;;;;;;21.90;33.00;;;;;;482321;246;1163;-47
2021/12/26 06:05:21;;;;;;;;;;;21.90;33.00;;;;;;482678;246;1173;-47
2021/12/26 06:07:22;;;;;;;;;;;21.90;33.00;;;;;;482223;246;1179;-46
2021/12/26 06:09:23;;;;;;;;;;;21.90;32.90;;;;;;482286;246;1248;-47
2021/12/26 06:11:25;;;;;;;;;;;21.90;32.90;;;;;;482606;246;1201;-47
2021/12/26 06:13:26;;;;;;;;;;;22.00;32.90;;;;;;482453;246;1217;-47
2021/12/26 06:15:27;;;;;;;;;;;22.00;32.90;;;;;;482329;246;1495;-47
2021/12/26 06:17:29;;;;;;;;;;;22.00;32.90;;;;;;482428;246;1750;-47
2021/12/26 06:19:30;;;;;;;;;;;22.00;32.90;;;;;;482282;246;1253;-47
2021/12/26 06:21:31;;;;;;;;;;;22.00;32.80;;;;;;482480;246;2245;-47
2021/12/26 06:23:33;;;;;;;;;;;22.00;32.80;;;;;;482674;246;1238;-46
2021/12/26 06:25:34;;;;;;;;;;;22.10;32.80;;;;;;482618;246;1266;-46
2021/12/26 06:27:36;;;;;;;;;;;22.10;32.80;;;;;;482199;246;1213;-47
2021/12/26 06:29:37;;;;;;;;;;;22.10;32.80;;;;;;482186;246;2192;-47
2021/12/26 06:31:38;;;;;;;;;;;22.10;32.70;;;;;;482455;246;1170;-46
2021/12/26 06:33:39;;;;;;;;;;;22.10;32.70;;;;;;482206;246;1198;-46
2021/12/26 06:35:40;;;;;;;;;;;22.10;32.70;;;;;;482636;246;1068;-47
2021/12/26 06:37:42;;;;;;;;;;;22.10;32.70;;;;;;482187;246;1223;-46
2021/12/26 06:39:43;;;;;;;;;;;22.20;32.70;;;;;;482736;246;1054;-46
2021/12/26 06:41:44;;;;;;;;;;;22.20;32.70;;;;;;482482;246;2197;-46
2021/12/26 06:43:46;;;;;;;;;;;22.20;32.70;;;;;;482241;246;1410;-47
2021/12/26 06:45:47;;;;;;;;;;;22.20;32.60;;;;;;482206;246;1161;-47
2021/12/26 06:47:51;;;;;;;;;;;22.20;32.60;;;;;;482159;246;1158;-46
2021/12/26 06:49:51;;;;;;;;;;;22.20;32.60;;;;;;482158;247;1632;-46
2021/12/26 06:51:52;;;;;;;;;;;22.20;32.60;;;;;;482414;246;1216;-47
2021/12/26 06:53:53;;;;;;;;;;;22.20;32.60;;;;;;482240;246;1236;-46
2021/12/26 06:55:55;;;;;;;;;;;22.20;32.60;;;;;;482680;246;1148;-47
2021/12/26 06:57:56;;;;;;;;;;;22.20;32.50;;;;;;482206;246;1165;-46
2021/12/26 06:59:57;;;;;;;;;;;22.30;32.60;;;;;;482505;246;986;-47
2021/12/26 07:01:59;;;;;;;;;;;22.30;32.60;;;;;;482103;246;2197;-47
2021/12/26 07:04:00;;;;;;;;;;;22.30;32.50;;;;;;482334;246;1242;-47
2021/12/26 07:06:01;;;;;;;;;;;22.30;32.50;;;;;;482457;246;1409;-47
2021/12/26 07:08:02;;;;;;;;;;;22.30;32.50;;;;;;482708;246;1284;-47
2021/12/26 07:10:04;;;;;;;;;;;22.30;32.50;;;;;;482719;246;1245;-47
2021/12/26 07:12:05;;;;;;;;;;;22.30;32.50;;;;;;482606;246;1259;-47
2021/12/26 07:14:06;;;;;;;;;;;22.30;32.50;;;;;;482535;246;1275;-47
2021/12/26 07:16:08;;;;;;;;;;;22.30;32.50;;;;;;482285;246;1134;-47
2021/12/26 07:18:09;;;;;;;;;;;22.30;32.50;;;;;;482575;246;1243;-46
2021/12/26 07:20:10;;;;;;;;;;;22.30;32.40;;;;;;482279;246;1043;-47
2021/12/26 07:22:12;;;;;;;;;;;22.40;32.50;;;;;;482173;246;2180;-47
2021/12/26 07:24:13;;;;;;;;;;;22.30;32.40;;;;;;482363;246;1053;-46
2021/12/26 07:26:14;;;;;;;;;;;22.30;32.40;;;;;;482636;246;1420;-46
2021/12/26 07:28:16;;;;;;;;;;;22.40;32.40;;;;;;482266;246;1053;-47
2021/12/26 07:30:17;;;;;;;;;;;22.40;32.40;;;;;;482681;246;2210;-47
2021/12/26 07:32:18;;;;;;;;;;;22.40;32.50;;;;;;482460;246;1196;-47
2021/12/26 07:34:20;;;;;;;;;;;22.40;32.40;;;;;;482335;246;1707;-47
2021/12/26 07:36:21;;;;;;;;;;;22.40;32.40;;;;;;482667;246;1507;-47
2021/12/26 07:38:22;;;;;;;;;;;22.40;32.40;;;;;;482433;246;1209;-47
2021/12/26 07:40:24;;;;;;;;;;;22.40;32.40;;;;;;482276;246;1140;-47
2021/12/26 07:42:25;;;;;;;;;;;22.40;32.30;;;;;;482585;247;2380;-46
2021/12/26 07:44:26;;;;;;;;;;;22.40;32.40;;;;;;482584;246;1084;-46
2021/12/26 07:46:27;;;;;;;;;;;22.50;32.40;;;;;;482632;246;1230;-46
2021/12/26 07:48:29;;;;;;;;;;;22.50;32.40;;;;;;482569;246;1156;-46
2021/12/26 07:50:30;;;;;;;;;;;22.40;32.30;;;;;;482708;246;1182;-47
2021/12/26 07:52:36;;;;;;;;;;;22.40;32.30;;;;;;482226;246;1698;-46
2021/12/26 07:54:33;;;;;;;;;;;22.40;32.30;;;;;;482063;247;2318;-46
2021/12/26 07:56:34;;;;;;;;;;;22.40;32.30;;;;;;482236;246;1554;-47
2021/12/26 07:58:35;;;;;;;;;;;22.50;32.40;;;;;;482568;246;1070;-47
2021/12/26 08:00:37;;;;;;;;;;;22.50;32.40;;;;;;482700;246;1156;-47
2021/12/26 08:02:38;;;;;;;;;;;22.50;32.30;;;;;;482498;246;2122;-47
2021/12/26 08:04:39;;;;;;;;;;;22.50;32.30;;;;;;482270;246;1160;-46
2021/12/26 08:06:41;;;;;;;;;;;22.50;32.30;;;;;;482633;246;1316;-47
2021/12/26 08:08:42;;;;;;;;;;;22.50;32.30;;;;;;482379;246;1059;-47
2021/12/26 08:10:43;;;;;;;;;;;22.50;32.30;;;;;;482363;246;1323;-47
2021/12/26 08:12:45;;;;;;;;;;;22.50;32.30;;;;;;482300;246;1238;-47
2021/12/26 08:14:46;;;;;;;;;;;22.50;32.30;;;;;;482702;246;1057;-46
2021/12/26 08:16:48;;;;;;;;;;;22.50;32.30;;;;;;482498;246;1212;-47
2021/12/26 08:18:49;;;;;;;;;;;22.50;32.30;;;;;;482242;247;1829;-47
2021/12/26 08:20:50;;;;;;;;;;;22.50;32.30;;;;;;482644;246;1175;-46
2021/12/26 08:22:52;;;;;;;;;;;22.50;32.30;;;;;;482629;246;2138;-46
2021/12/26 08:24:53;;;;;;;;;;;22.60;32.30;;;;;;482725;246;1356;-46
2021/12/26 08:26:54;;;;;;;;;;;22.50;32.20;;;;;;482496;246;1284;-47
2021/12/26 08:28:56;;;;;;;;;;;22.60;32.30;;;;;;482325;246;1080;-47
2021/12/26 08:30:57;;;;;;;;;;;22.60;32.30;;;;;;482201;246;1181;-46
2021/12/26 08:33:04;;;;;;;;;;;22.60;32.30;;;;;;482634;246;1216;-47
2021/12/26 08:35:00;;;;;;;;;;;22.60;32.30;;;;;;481919;247;2130;-47
2021/12/26 08:37:02;;;;;;;;;;;22.60;32.30;;;;;;482067;246;2470;-46
2021/12/26 08:39:03;;;;;;;;;;;22.60;32.30;;;;;;482251;247;1752;-46
2021/12/26 08:41:04;;;;;;;;;;;22.60;32.30;;;;;;482590;246;1530;-46
2021/12/26 08:43:05;;;;;;;;;;;22.60;32.30;;;;;;482303;246;2126;-46
2021/12/26 08:45:07;;;;;;;;;;;22.60;32.30;;;;;;482269;246;1223;-47
2021/12/26 08:47:08;;;;;;;;;;;22.60;32.30;;;;;;482205;246;1499;-47
2021/12/26 08:49:09;;;;;;;;;;;22.60;32.30;;;;;;482425;246;1265;-47
2021/12/26 08:51:11;;;;;;;;;;;22.60;32.30;;;;;;482511;246;1192;-47
2021/12/26 08:53:12;;;;;;;;;;;22.60;32.20;;;;;;482316;246;1192;-47
2021/12/26 08:55:13;;;;;;;;;;;22.60;32.30;;;;;;482269;246;1055;-46
2021/12/26 08:57:15;;;;;;;;;;;22.60;32.20;;;;;;482392;246;1400;-47
2021/12/26 08:59:16;;;;;;;;;;;22.60;32.20;;;;;;482291;246;1139;-47
2021/12/26 09:01:17;;;;;;;;;;;22.60;32.30;;;;;;482489;246;1429;-47
2021/12/26 09:03:18;;;;;;;;;;;22.60;32.20;;;;;;482376;246;2146;-47
2021/12/26 09:05:20;;;;;;;;;;;22.60;32.20;;;;;;482297;246;1203;-47
2021/12/26 09:07:21;;;;;;;;;;;22.60;32.20;;;;;;482123;246;1228;-46
2021/12/26 09:09:22;;;;;;;;;;;22.60;32.20;;;;;;482750;246;1041;-47
2021/12/26 09:11:24;;;;;;;;;;;22.50;32.30;;;;;;482361;246;1350;-46
2021/12/26 09:13:25;;;;;;;;;;;22.40;32.50;;;;;;482304;246;1209;-47
2021/12/26 09:15:26;;;;;;;;;;;22.20;32.90;;;;;;482217;246;2039;-46
2021/12/26 09:17:28;;;;;;;;;;;22.00;33.20;;;;;;482135;246;1265;-46
2021/12/26 09:19:29;;;;;;;;;;;21.80;33.50;;;;;;482495;246;1224;-46
2021/12/26 09:21:30;;;;;;;;;;;21.70;33.80;;;;;;482446;246;1371;-47
2021/12/26 09:23:31;;;;;;;;;;;21.60;34.00;;;;;;482686;246;2135;-46
2021/12/26 09:25:33;;;;;;;;;;;21.50;34.10;;;;;;482612;246;1118;-46
2021/12/26 09:27:34;;;;;;;;;;;21.40;34.20;;;;;;482426;246;1220;-46
2021/12/26 09:29:35;;;;;;;;;;;21.40;34.30;;;;;;482594;246;1220;-46
2021/12/26 09:31:37;;;;;;;;;;;21.30;34.40;;;;;;482122;243;1198;-46
2021/12/26 09:33:38;;;;;;;;;;;21.30;34.50;;;;;;482717;246;1347;-46
2021/12/26 09:35:39;;;;;;;;;;;21.30;34.50;;;;;;482266;246;1167;-46
2021/12/26 09:37:41;;;;;;;;;;;21.20;34.60;;;;;;482167;246;1195;-46
2021/12/26 09:39:42;;;;;;;;;;;21.20;34.60;;;;;;482218;246;1233;-46
2021/12/26 09:41:43;;;;;;;;;;;21.20;34.60;;;;;;482189;246;1159;-46
2021/12/26 09:43:45;;;;;;;;;;;21.20;34.70;;;;;;482240;246;2197;-46
2021/12/26 09:45:46;;;;;;;;;;;21.10;34.70;;;;;;482321;246;1078;-46
2021/12/26 09:47:49;;;;;;;;;;;21.10;34.80;;;;;;482194;246;1371;-46
2021/12/26 09:49:50;;;;;;;;;;;21.10;34.80;;;;;;482512;247;1589;-46
2021/12/26 09:51:52;;;;;;;;;;;21.10;34.90;;;;;;482606;246;1169;-46
2021/12/26 09:53:53;;;;;;;;;;;21.00;34.90;;;;;;482202;246;2198;-46
2021/12/26 09:55:54;;;;;;;;;;;21.00;34.90;;;;;;482545;246;1178;-47
2021/12/26 09:57:55;;;;;;;;;;;21.00;34.90;;;;;;482203;246;1181;-46
2021/12/26 09:59:57;;;;;;;;;;;21.00;35.00;;;;;;482260;246;1060;-46
2021/12/26 10:02:00;;;;;;;;;;;20.90;35.00;;;;;;482124;246;1220;-46
2021/12/26 10:03:59;;;;;;;;;;;20.90;35.00;;;;;;482393;247;2138;-46
2021/12/26 10:06:01;;;;;;;;;;;20.90;35.10;;;;;;482238;246;1368;-46
2021/12/26 10:08:02;;;;;;;;;;;20.90;35.10;;;;;;482195;246;1221;-46
2021/12/26 10:10:03;;;;;;;;;;;20.80;35.10;;;;;;482333;246;1066;-47
2021/12/26 10:12:04;;;;;;;;;;;20.80;35.10;;;;;;482542;246;1210;-46
2021/12/26 10:14:06;;;;;;;;;;;20.80;35.20;;;;;;482457;246;1072;-46
2021/12/26 10:16:07;;;;;;;;;;;20.80;35.20;;;;;;482454;246;1357;-45
2021/12/26 10:18:08;;;;;;;;;;;20.80;35.10;;;;;;482598;246;1061;-46
2021/12/26 10:20:10;;;;;;;;;;;20.80;35.20;;;;;;482514;246;1213;-46
2021/12/26 10:22:11;;;;;;;;;;;20.80;35.20;;;;;;482261;246;1170;-46
2021/12/26 10:24:12;;;;;;;;;;;20.80;35.20;;;;;;482180;246;2214;-47
2021/12/26 10:26:14;;;;;;;;;;;20.80;35.20;;;;;;482144;246;1367;-47
2021/12/26 10:28:15;;;;;;;;;;;20.80;35.20;;;;;;482484;246;1051;-46
2021/12/26 10:30:22;;;;;;;;;;;20.70;35.20;;;;;;482439;246;1067;-46
2021/12/26 10:32:18;;;;;;;;;;;20.80;35.20;;;;;;481839;247;2487;-46
2021/12/26 10:34:19;;;;;;;;;;;20.80;35.20;;;;;;482319;246;1077;-46
2021/12/26 10:36:20;;;;;;;;;;;20.70;35.20;;;;;;482252;246;1203;-46
2021/12/26 10:38:22;;;;;;;;;;;20.70;35.30;;;;;;482294;246;1252;-46
2021/12/26 10:40:24;;;;;;;;;;;20.70;35.40;;;;;;482723;246;1286;-46
2021/12/26 10:42:24;;;;;;;;;;;20.60;35.30;;;;;;482335;246;2376;-46
2021/12/26 10:44:26;;;;;;;;;;;20.60;35.40;;;;;;482321;246;1084;-46
2021/12/26 10:46:27;;;;;;;;;;;20.60;35.30;;;;;;482399;243;1174;-46
2021/12/26 10:48:28;;;;;;;;;;;20.60;35.30;;;;;;482686;246;1224;-47
2021/12/26 10:50:30;;;;;;;;;;;20.60;35.40;;;;;;482523;246;1158;-46
2021/12/26 10:52:31;;;;;;;;;;;20.60;35.40;;;;;;482210;246;1290;-46
2021/12/26 10:54:32;;;;;;;;;;;20.60;35.40;;;;;;482572;246;1087;-46
2021/12/26 10:56:34;;;;;;;;;;;20.60;35.40;;;;;;482181;246;1196;-46
2021/12/26 10:58:36;;;;;;;;;;;20.60;35.30;;;;;;482698;246;1153;-46
2021/12/26 11:00:37;;;;;;;;;;;20.60;35.30;;;;;;482332;246;1245;-46
2021/12/26 11:02:40;;;;;;;;;;;20.60;35.30;;;;;;482199;246;2192;-46
2021/12/26 11:04:40;;;;;;;;;;;20.60;35.30;;;;;;482246;247;1554;-46
2021/12/26 11:06:41;;;;;;;;;;;20.60;35.40;;;;;;482135;246;1382;-46
2021/12/26 11:08:43;;;;;;;;;;;20.60;35.50;;;;;;482676;246;1220;-46
2021/12/26 11:10:43;;;;;;;;;;;20.50;35.40;;;;;;482493;247;2449;-46
2021/12/26 11:12:45;;;;;;;;;;;20.50;35.40;;;;;;482127;246;1560;-46
2021/12/26 11:14:46;;;;;;;;;;;20.50;35.40;;;;;;482451;246;1082;-46
2021/12/26 11:16:47;;;;;;;;;;;20.60;35.50;;;;;;482345;246;1368;-46
2021/12/26 11:18:49;;;;;;;;;;;20.50;35.40;;;;;;482388;246;1066;-46
2021/12/26 11:20:50;;;;;;;;;;;20.50;35.50;;;;;;482424;246;1190;-46
2021/12/26 11:22:51;;;;;;;;;;;20.50;35.50;;;;;;482347;246;2145;-46
2021/12/26 11:24:53;;;;;;;;;;;20.50;35.50;;;;;;482297;246;1182;-46
2021/12/26 11:26:55;;;;;;;;;;;20.50;35.50;;;;;;482331;246;1504;-46
2021/12/26 11:28:56;;;;;;;;;;;20.50;35.60;;;;;;482304;246;1062;-46
2021/12/26 11:30:57;;;;;;;;;;;20.50;35.50;;;;;;482196;246;1344;-46
2021/12/26 11:32:58;;;;;;;;;;;20.40;35.50;;;;;;482342;246;1049;-46
2021/12/26 11:35:00;;;;;;;;;;;20.50;35.50;;;;;;482411;246;1047;-46
2021/12/26 11:37:01;;;;;;;;;;;20.40;35.50;;;;;;482159;246;1559;-46
2021/12/26 11:39:05;;;;;;;;;;;20.40;35.50;;;;;;482439;246;1098;-46
2021/12/26 11:41:04;;;;;;;;;;;20.50;35.60;;;;;;482145;247;2582;-46
2021/12/26 11:43:05;;;;;;;;;;;20.50;35.40;;;;;;482590;246;2118;-46
2021/12/26 11:45:10;;;;;;;;;;;20.50;35.50;;;;;;482599;246;1073;-46
2021/12/26 11:47:08;;;;;;;;;;;20.40;35.60;;;;;;482415;247;1436;-46
2021/12/26 11:49:09;;;;;;;;;;;20.40;35.50;;;;;;482276;246;1109;-46
2021/12/26 11:51:10;;;;;;;;;;;20.40;35.50;;;;;;482472;246;1228;-46
2021/12/26 11:53:12;;;;;;;;;;;20.40;35.60;;;;;;482673;246;1251;-46
2021/12/26 11:55:13;;;;;;;;;;;20.40;35.60;;;;;;482730;246;1075;-46
2021/12/26 11:57:14;;;;;;;;;;;20.40;35.60;;;;;;482322;246;1144;-46
2021/12/26 11:59:16;;;;;;;;;;;20.40;35.60;;;;;;482407;246;1291;-46